createdAt,value
2023-01-22T00:00:00.858Z,-0.50
2023-01-22T00:01:02.766Z,-0.60
2023-01-22T00:02:05.187Z,-0.50
2023-01-22T00:03:06.625Z,-0.50
2023-01-22T00:04:09.381Z,-0.50
2023-01-22T00:05:10.802Z,-0.60
2023-01-22T00:06:13.667Z,-0.60
2023-01-22T00:07:18.061Z,-0.60
2023-01-22T00:08:20.182Z,-0.60
2023-01-22T00:09:22.393Z,-0.60
2023-01-22T00:10:24.179Z,-0.50
2023-01-22T00:11:25.650Z,-0.50
2023-01-22T00:12:27.587Z,-0.60
2023-01-22T00:13:29.276Z,-0.60
2023-01-22T00:14:30.742Z,-0.70
2023-01-22T00:15:32.161Z,-0.60
2023-01-22T00:16:33.655Z,-0.60
2023-01-22T00:17:35.074Z,-0.60
2023-01-22T00:18:36.424Z,-0.60
2023-01-22T00:19:37.836Z,-0.50
2023-01-22T00:20:41.435Z,-0.50
2023-01-22T00:21:43.011Z,-0.60
2023-01-22T00:22:44.830Z,-0.50
2023-01-22T00:23:46.376Z,-0.60
2023-01-22T00:24:48.010Z,-0.60
2023-01-22T00:25:49.437Z,-0.60
2023-01-22T00:26:51.064Z,-0.60
2023-01-22T00:27:53.988Z,-0.60
2023-01-22T00:28:55.497Z,-0.70
2023-01-22T00:29:57.610Z,-0.70
2023-01-22T00:31:01.121Z,-0.60
2023-01-22T00:32:02.939Z,-0.60
2023-01-22T00:33:05.335Z,-0.60
2023-01-22T00:34:06.747Z,-0.60
2023-01-22T00:35:08.509Z,-0.60
2023-01-22T00:36:14.184Z,-0.60
2023-01-22T00:37:15.579Z,-0.60
2023-01-22T00:38:20.100Z,-0.70
2023-01-22T00:39:21.503Z,-0.60
2023-01-22T00:40:23.531Z,-0.60
2023-01-22T00:41:25.283Z,-0.50
2023-01-22T00:42:27.526Z,-0.50
2023-01-22T00:43:29.981Z,-0.50
2023-01-22T00:44:31.460Z,-0.50
2023-01-22T00:45:34.099Z,-0.50
2023-01-22T00:46:35.718Z,-0.40
2023-01-22T00:47:37.122Z,-0.40
2023-01-22T00:48:38.594Z,-0.50
2023-01-22T00:49:40.051Z,-0.50
2023-01-22T00:50:41.557Z,-0.50
2023-01-22T00:51:43.386Z,-0.50
2023-01-22T00:52:44.773Z,-0.50
2023-01-22T00:53:46.203Z,-0.60
2023-01-22T00:54:48.073Z,-0.50
2023-01-22T00:55:58.088Z,-0.50
2023-01-22T00:57:00.117Z,-0.50
2023-01-22T00:58:01.500Z,-0.50
2023-01-22T00:59:10.108Z,-0.60
2023-01-22T01:00:18.525Z,-0.60
2023-01-22T01:01:21.471Z,-0.50
2023-01-22T01:02:23.048Z,-0.50
2023-01-22T01:03:27.171Z,-0.60
2023-01-22T01:04:28.619Z,-0.50
2023-01-22T01:05:30.225Z,-0.50
2023-01-22T01:06:31.619Z,-0.60
2023-01-22T01:07:33.048Z,-0.60
2023-01-22T01:08:37.291Z,-0.60
2023-01-22T01:09:38.723Z,-0.60
2023-01-22T01:10:40.227Z,-0.60
2023-01-22T01:11:41.745Z,-0.60
2023-01-22T01:12:43.320Z,-0.60
2023-01-22T01:13:45.308Z,-0.60
2023-01-22T01:14:48.298Z,-0.50
2023-01-22T01:15:50.147Z,-0.60
2023-01-22T01:16:51.578Z,-0.60
2023-01-22T01:17:52.954Z,-0.50
2023-01-22T01:19:07.984Z,-0.50
2023-01-22T01:20:10.373Z,-0.50
2023-01-22T01:21:12.883Z,-0.50
2023-01-22T01:22:15.998Z,-0.50
2023-01-22T01:23:17.593Z,-0.50
2023-01-22T01:24:19.026Z,-0.50
2023-01-22T01:25:20.549Z,-0.50
2023-01-22T01:26:22.729Z,-0.50
2023-01-22T01:27:24.302Z,-0.40
2023-01-22T01:28:28.624Z,-0.40
2023-01-22T01:29:30.374Z,-0.50
2023-01-22T01:30:31.773Z,-0.40
2023-01-22T01:31:33.786Z,-0.40
2023-01-22T01:32:35.272Z,-0.40
2023-01-22T01:33:37.423Z,-0.30
2023-01-22T01:34:39.097Z,-0.30
2023-01-22T01:35:40.699Z,-0.30
2023-01-22T01:36:49.890Z,-0.30
2023-01-22T01:37:53.288Z,-0.30
2023-01-22T01:38:55.120Z,-0.30
2023-01-22T01:39:56.876Z,-0.40
2023-01-22T01:40:58.990Z,-0.30
2023-01-22T01:42:01.722Z,-0.30
2023-01-22T01:43:03.194Z,-0.30
2023-01-22T01:44:20.128Z,-0.30
2023-01-22T01:45:34.251Z,-0.30
2023-01-22T01:46:39.835Z,-0.30
2023-01-22T01:47:41.412Z,-0.30
2023-01-22T01:48:47.652Z,-0.30
2023-01-22T01:49:52.554Z,-0.40
2023-01-22T01:51:09.545Z,-0.50
2023-01-22T01:52:13.121Z,-0.40
2023-01-22T01:53:14.588Z,-0.30
2023-01-22T01:54:17.812Z,-0.30
2023-01-22T01:55:24.634Z,-0.30
2023-01-22T01:56:32.883Z,-0.30
2023-01-22T01:57:35.487Z,-0.30
2023-01-22T01:58:39.294Z,-0.30
2023-01-22T01:59:42.926Z,-0.30
2023-01-22T02:00:45.567Z,-0.30
2023-01-22T02:01:53.009Z,-0.30
2023-01-22T02:02:54.553Z,-0.30
2023-01-22T02:03:56.161Z,-0.40
2023-01-22T02:04:57.851Z,-0.40
2023-01-22T02:05:59.303Z,-0.30
2023-01-22T02:07:01.586Z,-0.40
2023-01-22T02:08:07.106Z,-0.40
2023-01-22T02:09:08.795Z,-0.30
2023-01-22T02:10:11.261Z,-0.30
2023-01-22T02:11:13.878Z,-0.30
2023-01-22T02:12:15.776Z,-0.40
2023-01-22T02:13:24.420Z,-0.40
2023-01-22T02:14:30.918Z,-0.30
2023-01-22T02:15:33.752Z,-0.30
2023-01-22T02:16:35.202Z,-0.30
2023-01-22T02:17:36.831Z,-0.30
2023-01-22T02:18:38.809Z,-0.30
2023-01-22T02:19:41.612Z,-0.30
2023-01-22T02:20:53.873Z,-0.30
2023-01-22T02:21:55.390Z,-0.30
2023-01-22T02:22:56.920Z,-0.40
2023-01-22T02:23:58.501Z,-0.40
2023-01-22T02:25:01.597Z,-0.40
2023-01-22T02:26:03.218Z,-0.40
2023-01-22T02:27:06.805Z,-0.50
2023-01-22T02:28:08.207Z,-0.40
2023-01-22T02:29:13.212Z,-0.40
2023-01-22T02:30:16.487Z,-0.50
2023-01-22T02:31:18.197Z,-0.50
2023-01-22T02:32:19.922Z,-0.50
2023-01-22T02:33:21.413Z,-0.50
2023-01-22T02:34:25.103Z,-0.50
2023-01-22T02:35:27.607Z,-0.50
2023-01-22T02:36:30.502Z,-0.50
2023-01-22T02:37:32.019Z,-0.60
2023-01-22T02:38:33.758Z,-0.60
2023-01-22T02:39:35.233Z,-0.60
2023-01-22T02:40:48.994Z,-0.50
2023-01-22T02:41:53.189Z,-0.60
2023-01-22T02:42:55.112Z,-0.60
2023-01-22T02:43:56.777Z,-0.60
2023-01-22T02:44:59.353Z,-0.60
2023-01-22T02:46:01.432Z,-0.60
2023-01-22T02:47:04.142Z,-0.60
2023-01-22T02:48:06.987Z,-0.60
2023-01-22T02:49:09.452Z,-0.60
2023-01-22T02:50:11.316Z,-0.60
2023-01-22T02:51:13.987Z,-0.60
2023-01-22T02:52:17.865Z,-0.60
2023-01-22T02:53:21.193Z,-0.70
2023-01-22T02:54:23.418Z,-0.60
2023-01-22T02:55:25.521Z,-0.60
2023-01-22T02:56:27.667Z,-0.60
2023-01-22T02:57:32.011Z,-0.60
2023-01-22T02:58:34.491Z,-0.60
2023-01-22T02:59:35.980Z,-0.50
2023-01-22T03:00:37.575Z,-0.60
2023-01-22T03:01:39.120Z,-0.60
2023-01-22T03:02:41.179Z,-0.60
2023-01-22T03:03:42.590Z,-0.60
2023-01-22T03:04:46.697Z,-0.60
2023-01-22T03:05:52.225Z,-0.60
2023-01-22T03:06:53.694Z,-0.70
2023-01-22T03:07:56.553Z,-0.70
2023-01-22T03:09:00.537Z,-0.70
2023-01-22T03:10:02.188Z,-0.70
2023-01-22T03:11:05.295Z,-0.70
2023-01-22T03:12:08.135Z,-0.70
2023-01-22T03:13:30.557Z,-0.70
2023-01-22T03:14:50.971Z,-0.60
2023-01-22T03:16:11.435Z,-0.70
2023-01-22T03:17:31.384Z,-0.60
2023-01-22T03:18:53.072Z,-0.70
2023-01-22T03:20:13.277Z,-0.80
2023-01-22T03:21:15.931Z,-0.70
2023-01-22T03:22:19.519Z,-0.70
2023-01-22T03:23:21.021Z,-0.70
2023-01-22T03:24:22.968Z,-0.70
2023-01-22T03:25:24.421Z,-0.70
2023-01-22T03:26:28.920Z,-0.80
2023-01-22T03:27:31.594Z,-0.80
2023-01-22T03:28:33.769Z,-0.80
2023-01-22T03:29:38.367Z,-0.90
2023-01-22T03:30:41.884Z,-0.80
2023-01-22T03:31:48.310Z,-0.80
2023-01-22T03:32:50.122Z,-0.80
2023-01-22T03:33:51.616Z,-0.70
2023-01-22T03:34:53.825Z,-0.70
2023-01-22T03:36:05.732Z,-0.70
2023-01-22T03:37:09.287Z,-0.70
2023-01-22T03:38:11.234Z,-0.70
2023-01-22T03:39:13.591Z,-0.80
2023-01-22T03:40:15.362Z,-0.70
2023-01-22T03:41:18.579Z,-0.70
2023-01-22T03:42:24.949Z,-0.70
2023-01-22T03:43:26.592Z,-0.70
2023-01-22T03:44:28.083Z,-0.70
2023-01-22T03:45:29.548Z,-0.60
2023-01-22T03:46:31.904Z,-0.60
2023-01-22T03:47:33.710Z,-0.60
2023-01-22T03:48:45.190Z,-0.60
2023-01-22T03:49:46.969Z,-0.60
2023-01-22T03:50:49.021Z,-0.70
2023-01-22T03:51:50.517Z,-0.60
2023-01-22T03:52:52.202Z,-0.60
2023-01-22T03:53:53.929Z,-0.70
2023-01-22T03:54:55.897Z,-0.70
2023-01-22T03:56:06.298Z,-0.70
2023-01-22T03:57:09.493Z,-0.70
2023-01-22T03:58:13.544Z,-0.60
2023-01-22T03:59:15.083Z,-0.60
2023-01-22T04:00:18.622Z,-0.60
2023-01-22T04:01:25.835Z,-0.50
2023-01-22T04:02:28.155Z,-0.50
2023-01-22T04:03:46.274Z,-0.60
2023-01-22T04:04:47.946Z,-0.60
2023-01-22T04:05:49.451Z,-0.60
2023-01-22T04:06:51.798Z,-0.60
2023-01-22T04:07:53.262Z,-0.60
2023-01-22T04:08:58.780Z,-0.60
2023-01-22T04:10:05.665Z,-0.60
2023-01-22T04:11:07.550Z,-0.60
2023-01-22T04:12:09.054Z,-0.50
2023-01-22T04:13:10.589Z,-0.50
2023-01-22T04:14:14.422Z,-0.50
2023-01-22T04:15:22.431Z,-0.50
2023-01-22T04:16:25.351Z,-0.50
2023-01-22T04:17:43.966Z,-0.50
2023-01-22T04:19:04.746Z,-0.50
2023-01-22T04:20:06.726Z,-0.50
2023-01-22T04:21:28.425Z,-0.50
2023-01-22T04:22:32.566Z,-0.50
2023-01-22T04:23:34.130Z,-0.40
2023-01-22T04:24:36.866Z,-0.50
2023-01-22T04:25:39.860Z,-0.50
2023-01-22T04:26:42.323Z,-0.50
2023-01-22T04:27:45.919Z,-0.40
2023-01-22T04:28:50.864Z,-0.40
2023-01-22T04:29:55.062Z,-0.40
2023-01-22T04:30:58.305Z,-0.40
2023-01-22T04:32:20.072Z,-0.40
2023-01-22T04:33:40.345Z,-0.50
2023-01-22T04:34:47.484Z,-0.50
2023-01-22T04:35:56.331Z,-0.50
2023-01-22T04:36:58.484Z,-0.60
2023-01-22T04:38:04.678Z,-0.60
2023-01-22T04:39:06.173Z,-0.60
2023-01-22T04:40:09.266Z,-0.50
2023-01-22T04:41:11.720Z,-0.50
2023-01-22T04:42:17.037Z,-0.50
2023-01-22T04:43:18.754Z,-0.50
2023-01-22T04:44:20.226Z,-0.50
2023-01-22T04:45:21.700Z,-0.50
2023-01-22T04:46:23.476Z,-0.50
2023-01-22T04:47:24.955Z,-0.50
2023-01-22T04:48:26.459Z,-0.50
2023-01-22T04:49:27.954Z,-0.40
2023-01-22T04:50:32.368Z,-0.30
2023-01-22T04:51:33.888Z,-0.30
2023-01-22T04:52:35.401Z,-0.30
2023-01-22T04:53:36.961Z,-0.40
2023-01-22T04:54:40.722Z,-0.40
2023-01-22T04:55:42.710Z,-0.30
2023-01-22T04:56:45.625Z,-0.30
2023-01-22T04:57:48.025Z,-0.30
2023-01-22T04:58:49.679Z,-0.30
2023-01-22T04:59:51.508Z,-0.30
2023-01-22T05:00:56.176Z,-0.30
2023-01-22T05:01:57.799Z,-0.30
2023-01-22T05:03:01.372Z,-0.30
2023-01-22T05:04:03.973Z,-0.20
2023-01-22T05:05:09.607Z,-0.30
2023-01-22T05:06:11.641Z,-0.30
2023-01-22T05:07:13.855Z,-0.30
2023-01-22T05:08:15.279Z,-0.30
2023-01-22T05:09:16.946Z,-0.40
2023-01-22T05:10:27.585Z,-0.40
2023-01-22T05:11:29.763Z,-0.50
2023-01-22T05:12:36.350Z,-0.40
2023-01-22T05:13:37.786Z,-0.50
2023-01-22T05:14:39.236Z,-0.50
2023-01-22T05:15:41.674Z,-0.50
2023-01-22T05:16:47.079Z,-0.50
2023-01-22T05:17:49.576Z,-0.50
2023-01-22T05:18:50.935Z,-0.40
2023-01-22T05:19:52.527Z,-0.40
2023-01-22T05:20:55.787Z,-0.40
2023-01-22T05:22:00.350Z,-0.40
2023-01-22T05:23:02.270Z,-0.50
2023-01-22T05:24:04.781Z,-0.50
2023-01-22T05:25:06.479Z,-0.60
2023-01-22T05:26:08.173Z,-0.60
2023-01-22T05:27:16.563Z,-0.50
2023-01-22T05:28:28.029Z,-0.50
2023-01-22T05:29:43.207Z,-0.50
2023-01-22T05:30:53.087Z,-0.60
2023-01-22T05:32:08.622Z,-0.50
2023-01-22T05:33:16.737Z,-0.50
2023-01-22T05:34:18.456Z,-0.60
2023-01-22T05:35:20.836Z,-0.50
2023-01-22T05:36:22.708Z,-0.50
2023-01-22T05:37:25.322Z,-0.50
2023-01-22T05:38:28.137Z,-0.50
2023-01-22T05:39:30.081Z,-0.50
2023-01-22T05:40:33.914Z,-0.40
2023-01-22T05:41:35.461Z,-0.40
2023-01-22T05:42:37.166Z,-0.40
2023-01-22T05:43:40.962Z,-0.50
2023-01-22T05:44:45.955Z,-0.40
2023-01-22T05:45:48.091Z,-0.40
2023-01-22T05:47:08.752Z,-0.40
2023-01-22T05:48:29.077Z,-0.40
2023-01-22T05:49:40.449Z,-0.40
2023-01-22T05:50:45.042Z,-0.40
2023-01-22T05:51:48.614Z,-0.40
2023-01-22T05:52:54.847Z,-0.40
2023-01-22T05:53:56.271Z,-0.40
2023-01-22T05:55:02.017Z,-0.40
2023-01-22T05:56:10.456Z,-0.40
2023-01-22T05:57:13.888Z,-0.50
2023-01-22T05:58:15.310Z,-0.50
2023-01-22T05:59:19.254Z,-0.50
2023-01-22T06:00:33.864Z,-0.40
2023-01-22T06:01:37.764Z,-0.50
2023-01-22T06:02:39.351Z,-0.50
2023-01-22T06:03:41.027Z,-0.50
2023-01-22T06:04:42.487Z,-0.40
2023-01-22T06:06:07.233Z,-0.50
2023-01-22T06:07:08.821Z,-0.50
2023-01-22T06:08:10.545Z,-0.50
2023-01-22T06:09:19.734Z,-0.40
2023-01-22T06:10:21.658Z,-0.50
2023-01-22T06:11:23.296Z,-0.50
2023-01-22T06:12:25.013Z,-0.60
2023-01-22T06:13:26.777Z,-0.60
2023-01-22T06:14:31.517Z,-0.60
2023-01-22T06:15:34.388Z,-0.60
2023-01-22T06:16:48.738Z,-0.60
2023-01-22T06:18:01.695Z,-0.60
2023-01-22T06:19:03.385Z,-0.60
2023-01-22T06:20:11.809Z,-0.50
2023-01-22T06:21:13.239Z,-0.50
2023-01-22T06:22:14.767Z,-0.50
2023-01-22T06:23:27.039Z,-0.50
2023-01-22T06:24:28.649Z,-0.50
2023-01-22T06:25:30.294Z,-0.50
2023-01-22T06:26:44.632Z,-0.50
2023-01-22T06:27:48.359Z,-0.60
2023-01-22T06:28:50.161Z,-0.50
2023-01-22T06:29:51.605Z,-0.50
2023-01-22T06:30:57.481Z,-0.50
2023-01-22T06:31:59.089Z,-0.50
2023-01-22T06:33:00.526Z,-0.50
2023-01-22T06:34:02.081Z,-0.50
2023-01-22T06:35:03.837Z,-0.50
2023-01-22T06:36:06.015Z,-0.50
2023-01-22T06:37:07.392Z,-0.60
2023-01-22T06:38:12.221Z,-0.50
2023-01-22T06:39:13.943Z,-0.50
2023-01-22T06:40:20.163Z,-0.60
2023-01-22T06:41:23.504Z,-0.50
2023-01-22T06:42:30.293Z,-0.50
2023-01-22T06:43:31.894Z,-0.60
2023-01-22T06:44:33.917Z,-0.60
2023-01-22T06:45:35.449Z,-0.50
2023-01-22T06:46:40.938Z,-0.50
2023-01-22T06:47:45.310Z,-0.50
2023-01-22T06:48:49.827Z,-0.50
2023-01-22T06:49:51.471Z,-0.50
2023-01-22T06:50:57.785Z,-0.50
2023-01-22T06:51:59.254Z,-0.50
2023-01-22T06:53:01.325Z,-0.60
2023-01-22T06:54:03.557Z,-0.60
2023-01-22T06:55:05.573Z,-0.60
2023-01-22T06:56:07.342Z,-0.60
2023-01-22T06:57:08.782Z,-0.60
2023-01-22T06:58:12.541Z,-0.60
2023-01-22T06:59:14.400Z,-0.60
2023-01-22T07:00:16.786Z,-0.60
2023-01-22T07:01:18.444Z,-0.60
2023-01-22T07:02:20.224Z,-0.60
2023-01-22T07:03:21.818Z,-0.60
2023-01-22T07:04:23.266Z,-0.60
2023-01-22T07:05:24.927Z,-0.50
2023-01-22T07:06:26.369Z,-0.50
2023-01-22T07:07:27.779Z,-0.60
2023-01-22T07:08:31.255Z,-0.60
2023-01-22T07:09:32.834Z,-0.60
2023-01-22T07:10:34.295Z,-0.50
2023-01-22T07:11:35.978Z,-0.50
2023-01-22T07:12:37.434Z,-0.50
2023-01-22T07:13:38.917Z,-0.50
2023-01-22T07:14:40.400Z,-0.40
2023-01-22T07:15:42.525Z,-0.40
2023-01-22T07:16:43.892Z,-0.50
2023-01-22T07:17:50.994Z,-0.40
2023-01-22T07:18:52.373Z,-0.50
2023-01-22T07:19:53.810Z,-0.50
2023-01-22T07:20:55.640Z,-0.40
2023-01-22T07:21:57.128Z,-0.30
2023-01-22T07:23:00.265Z,-0.30
2023-01-22T07:24:01.882Z,-0.30
2023-01-22T07:25:03.902Z,-0.30
2023-01-22T07:26:05.280Z,-0.30
2023-01-22T07:27:06.722Z,-0.30
2023-01-22T07:28:08.692Z,-0.30
2023-01-22T07:29:10.664Z,-0.30
2023-01-22T07:30:12.442Z,-0.30
2023-01-22T07:31:14.207Z,-0.20
2023-01-22T07:32:16.481Z,-0.20
2023-01-22T07:33:18.313Z,-0.20
2023-01-22T07:34:19.957Z,-0.20
2023-01-22T07:35:21.415Z,-0.20
2023-01-22T07:36:23.105Z,-0.20
2023-01-22T07:37:24.524Z,-0.20
2023-01-22T07:38:29.491Z,-0.20
2023-01-22T07:39:31.093Z,-0.20
2023-01-22T07:40:33.064Z,-0.20
2023-01-22T07:41:34.521Z,-0.20
2023-01-22T07:42:39.997Z,-0.30
2023-01-22T07:43:41.662Z,-0.30
2023-01-22T07:44:43.844Z,-0.30
2023-01-22T07:45:45.595Z,-0.20
2023-01-22T07:46:47.104Z,-0.20
2023-01-22T07:47:59.056Z,-0.20
2023-01-22T07:49:00.519Z,-0.20
2023-01-22T07:50:02.186Z,-0.20
2023-01-22T07:51:05.934Z,-0.10
2023-01-22T07:52:07.366Z,-0.10
2023-01-22T07:53:11.895Z,-0.10
2023-01-22T07:54:13.449Z,-0.20
2023-01-22T07:55:15.283Z,-0.10
2023-01-22T07:56:19.041Z,-0.10
2023-01-22T07:57:20.702Z,-0.20
2023-01-22T07:58:22.552Z,-0.20
2023-01-22T07:59:23.958Z,-0.10
2023-01-22T08:00:25.857Z,0.00
2023-01-22T08:01:27.601Z,0.00
2023-01-22T08:02:29.090Z,0.00
2023-01-22T08:03:34.036Z,-0.10
2023-01-22T08:04:35.510Z,-0.10
2023-01-22T08:05:39.943Z,0.00
2023-01-22T08:06:41.390Z,-0.10
2023-01-22T08:07:42.991Z,-0.10
2023-01-22T08:08:44.382Z,0.00
2023-01-22T08:09:45.879Z,0.10
2023-01-22T08:10:47.755Z,0.10
2023-01-22T08:11:49.352Z,0.00
2023-01-22T08:12:50.988Z,-0.10
2023-01-22T08:13:52.729Z,0.00
2023-01-22T08:14:54.140Z,0.00
2023-01-22T08:15:55.735Z,0.00
2023-01-22T08:16:57.455Z,0.10
2023-01-22T08:17:58.943Z,0.10
2023-01-22T08:19:00.362Z,0.10
2023-01-22T08:20:02.749Z,0.10
2023-01-22T08:21:04.939Z,0.20
2023-01-22T08:22:06.828Z,0.20
2023-01-22T08:23:08.401Z,0.20
2023-01-22T08:24:10.745Z,0.30
2023-01-22T08:25:12.454Z,0.40
2023-01-22T08:26:14.008Z,0.50
2023-01-22T08:27:16.079Z,0.50
2023-01-22T08:28:17.888Z,0.50
2023-01-22T08:29:19.715Z,0.60
2023-01-22T08:30:21.697Z,0.60
2023-01-22T08:31:28.434Z,0.60
2023-01-22T08:32:30.850Z,0.70
2023-01-22T08:33:33.483Z,0.70
2023-01-22T08:34:34.955Z,0.70
2023-01-22T08:35:39.758Z,0.70
2023-01-22T08:36:41.247Z,0.70
2023-01-22T08:37:45.979Z,0.80
2023-01-22T08:38:47.372Z,0.70
2023-01-22T08:39:48.812Z,0.50
2023-01-22T08:40:51.239Z,0.60
2023-01-22T08:41:57.308Z,0.50
2023-01-22T08:42:59.015Z,0.50
2023-01-22T08:44:00.433Z,0.40
2023-01-22T08:45:02.010Z,0.40
2023-01-22T08:46:03.495Z,0.40
2023-01-22T08:47:05.144Z,0.40
2023-01-22T08:48:06.764Z,0.50
2023-01-22T08:49:08.496Z,0.50
2023-01-22T08:50:10.911Z,0.40
2023-01-22T08:51:12.805Z,0.40
2023-01-22T08:52:14.544Z,0.40
2023-01-22T08:53:16.035Z,0.40
2023-01-22T08:54:18.429Z,0.40
2023-01-22T08:55:19.883Z,0.40
2023-01-22T08:56:21.951Z,0.50
2023-01-22T08:57:23.394Z,0.40
2023-01-22T08:58:27.984Z,0.50
2023-01-22T08:59:31.088Z,0.50
2023-01-22T09:00:32.917Z,0.50
2023-01-22T09:01:35.062Z,0.60
2023-01-22T09:02:36.784Z,0.60
2023-01-22T09:03:38.148Z,0.60
2023-01-22T09:04:40.584Z,0.70
2023-01-22T09:05:42.119Z,0.70
2023-01-22T09:06:43.800Z,0.70
2023-01-22T09:07:45.147Z,0.60
2023-01-22T09:08:47.187Z,0.60
2023-01-22T09:09:48.635Z,0.60
2023-01-22T09:10:50.103Z,0.70
2023-01-22T09:11:51.906Z,0.60
2023-01-22T09:12:53.420Z,0.70
2023-01-22T09:13:58.668Z,0.70
2023-01-22T09:15:00.514Z,0.80
2023-01-22T09:16:01.983Z,0.80
2023-01-22T09:17:03.527Z,0.90
2023-01-22T09:18:05.476Z,0.90
2023-01-22T09:19:07.513Z,0.90
2023-01-22T09:20:09.713Z,0.90
2023-01-22T09:21:11.132Z,0.90
2023-01-22T09:22:12.710Z,0.90
2023-01-22T09:23:15.656Z,0.90
2023-01-22T09:24:17.541Z,0.80
2023-01-22T09:25:19.021Z,0.80
2023-01-22T09:26:20.824Z,0.80
2023-01-22T09:27:22.283Z,0.80
2023-01-22T09:28:23.977Z,0.80
2023-01-22T09:29:25.830Z,0.70
2023-01-22T09:30:30.498Z,0.70
2023-01-22T09:31:33.527Z,0.70
2023-01-22T09:32:35.204Z,0.70
2023-01-22T09:33:36.839Z,0.70
2023-01-22T09:34:38.310Z,0.80
2023-01-22T09:35:39.716Z,0.80
2023-01-22T09:36:42.964Z,0.80
2023-01-22T09:37:44.463Z,0.70
2023-01-22T09:38:46.331Z,0.70
2023-01-22T09:39:50.680Z,0.70
2023-01-22T09:40:57.670Z,0.70
2023-01-22T09:42:03.440Z,0.60
2023-01-22T09:43:07.763Z,0.70
2023-01-22T09:44:12.852Z,0.70
2023-01-22T09:45:16.359Z,0.70
2023-01-22T09:46:30.525Z,0.80
2023-01-22T09:47:40.912Z,0.90
2023-01-22T09:48:47.963Z,1.00
2023-01-22T09:50:07.669Z,1.10
2023-01-22T09:51:15.736Z,1.30
2023-01-22T09:52:17.304Z,1.30
2023-01-22T09:53:20.786Z,1.30
2023-01-22T09:54:23.756Z,1.40
2023-01-22T09:55:30.416Z,1.40
2023-01-22T09:56:44.931Z,1.30
2023-01-22T09:57:49.503Z,1.40
2023-01-22T09:58:52.804Z,1.40
2023-01-22T09:59:56.989Z,1.50
2023-01-22T10:01:04.649Z,1.50
2023-01-22T10:02:30.286Z,1.40
2023-01-22T10:03:48.245Z,1.50
2023-01-22T10:04:55.493Z,1.60
2023-01-22T10:06:02.152Z,1.60
2023-01-22T10:07:07.876Z,1.60
2023-01-22T10:08:26.518Z,1.70
2023-01-22T10:09:32.380Z,1.70
2023-01-22T10:10:34.650Z,1.70
2023-01-22T10:11:38.148Z,1.60
2023-01-22T10:12:39.578Z,1.50
2023-01-22T10:13:41.190Z,1.60
2023-01-22T10:14:44.147Z,1.70
2023-01-22T10:15:46.438Z,1.60
2023-01-22T10:16:49.079Z,1.60
2023-01-22T10:17:51.484Z,1.60
2023-01-22T10:18:59.431Z,1.50
2023-01-22T10:20:04.471Z,1.50
2023-01-22T10:21:15.144Z,1.50
2023-01-22T10:22:22.934Z,1.60
2023-01-22T10:23:26.276Z,1.70
2023-01-22T10:24:28.362Z,1.60
2023-01-22T10:25:29.876Z,1.70
2023-01-22T10:26:49.049Z,1.80
2023-01-22T10:28:00.153Z,1.80
2023-01-22T10:29:10.819Z,1.80
2023-01-22T10:30:22.801Z,1.80
2023-01-22T10:31:28.753Z,1.80
2023-01-22T10:32:31.792Z,1.80
2023-01-22T10:33:38.952Z,1.70
2023-01-22T10:34:40.343Z,1.70
2023-01-22T10:35:45.844Z,1.80
2023-01-22T10:36:52.667Z,1.80
2023-01-22T10:37:55.895Z,1.80
2023-01-22T10:39:13.751Z,1.80
2023-01-22T10:40:38.291Z,1.80
2023-01-22T10:41:41.389Z,1.80
2023-01-22T10:42:42.752Z,1.80
2023-01-22T10:43:44.468Z,1.70
2023-01-22T10:44:46.437Z,1.70
2023-01-22T10:46:01.427Z,1.80
2023-01-22T10:47:20.401Z,1.70
2023-01-22T10:48:22.434Z,1.70
2023-01-22T10:49:26.279Z,1.70
2023-01-22T10:50:27.699Z,1.70
2023-01-22T10:51:37.600Z,1.70
2023-01-22T10:52:45.178Z,1.80
2023-01-22T10:53:57.629Z,1.90
2023-01-22T10:55:00.538Z,1.90
2023-01-22T10:56:04.363Z,1.90
2023-01-22T10:57:16.632Z,1.90
2023-01-22T10:58:21.279Z,2.00
2023-01-22T10:59:29.607Z,2.00
2023-01-22T11:00:51.581Z,2.00
2023-01-22T11:02:19.603Z,1.90
2023-01-22T11:03:23.802Z,2.00
2023-01-22T11:04:33.075Z,2.00
2023-01-22T11:05:37.109Z,2.00
2023-01-22T11:06:44.973Z,1.90
2023-01-22T11:07:50.107Z,1.70
2023-01-22T11:09:17.557Z,1.70
2023-01-22T11:10:27.185Z,1.80
2023-01-22T11:11:38.086Z,1.70
2023-01-22T11:12:45.509Z,1.70
2023-01-22T11:13:55.389Z,1.80
2023-01-22T11:15:21.121Z,1.70
2023-01-22T11:16:25.157Z,1.60
2023-01-22T11:17:37.735Z,1.60
2023-01-22T11:18:42.454Z,1.50
2023-01-22T11:19:54.715Z,1.50
2023-01-22T11:20:58.779Z,1.50
2023-01-22T11:22:01.369Z,1.50
2023-01-22T11:23:24.644Z,1.50
2023-01-22T11:24:38.529Z,1.50
2023-01-22T11:26:01.343Z,1.60
2023-01-22T11:27:14.819Z,1.50
2023-01-22T11:28:41.620Z,1.50
2023-01-22T11:30:21.439Z,1.50
2023-01-22T11:31:44.017Z,1.50
2023-01-22T11:33:20.084Z,1.40
2023-01-22T11:34:39.545Z,1.50
2023-01-22T11:36:09.981Z,1.50
2023-01-22T11:37:14.214Z,1.50
2023-01-22T11:38:41.934Z,1.60
2023-01-22T11:40:13.784Z,1.70
2023-01-22T11:41:36.193Z,1.60
2023-01-22T11:43:18.766Z,1.70
2023-01-22T11:44:20.202Z,1.70
2023-01-22T11:45:54.601Z,1.60
2023-01-22T11:46:58.846Z,1.60
2023-01-22T11:48:45.460Z,1.70
2023-01-22T11:49:59.120Z,1.70
2023-01-22T11:51:06.057Z,1.70
2023-01-22T11:52:33.482Z,1.70
2023-01-22T11:53:57.417Z,1.60
2023-01-22T11:55:16.481Z,1.60
2023-01-22T11:56:43.433Z,1.60
2023-01-22T11:58:00.256Z,1.50
2023-01-22T11:59:32.362Z,1.60
2023-01-22T12:01:06.240Z,1.70
2023-01-22T12:02:26.221Z,1.70
2023-01-22T12:03:50.877Z,1.70
2023-01-22T12:05:10.315Z,1.80
2023-01-22T12:06:31.201Z,1.80
2023-01-22T12:08:09.031Z,1.90
2023-01-22T12:09:26.477Z,2.00
2023-01-22T12:10:45.860Z,2.00
2023-01-22T12:12:22.231Z,2.00
2023-01-22T12:13:51.441Z,2.00
2023-01-22T12:15:30.644Z,2.00
2023-01-22T12:16:57.233Z,2.00
2023-01-22T12:18:32.445Z,2.00
2023-01-22T12:19:57.821Z,2.00
2023-01-22T12:21:34.378Z,2.00
2023-01-22T12:22:43.489Z,1.90
2023-01-22T12:23:54.107Z,1.90
2023-01-22T12:25:14.108Z,1.90
2023-01-22T12:26:23.211Z,1.90
2023-01-22T12:27:27.392Z,1.90
2023-01-22T12:28:52.734Z,1.90
2023-01-22T12:30:06.244Z,2.00
2023-01-22T12:31:20.919Z,2.00
2023-01-22T12:32:24.353Z,1.90
2023-01-22T12:33:38.197Z,1.70
2023-01-22T12:34:51.576Z,1.70
2023-01-22T12:35:56.748Z,1.70
2023-01-22T12:37:00.106Z,1.70
2023-01-22T12:38:30.743Z,1.70
2023-01-22T12:39:43.470Z,1.60
2023-01-22T12:41:09.929Z,1.70
2023-01-22T12:42:25.973Z,1.60
2023-01-22T12:43:55.168Z,1.60
2023-01-22T12:45:18.354Z,1.70
2023-01-22T12:46:35.229Z,1.70
2023-01-22T12:47:36.922Z,1.80
2023-01-22T12:48:49.090Z,1.90
2023-01-22T12:49:52.741Z,1.90
2023-01-22T12:50:56.245Z,1.90
2023-01-22T12:52:00.723Z,1.80
2023-01-22T12:53:21.327Z,1.70
2023-01-22T12:54:25.972Z,1.90
2023-01-22T12:55:38.144Z,1.90
2023-01-22T12:56:39.755Z,1.90
2023-01-22T12:57:42.170Z,1.90
2023-01-22T12:58:43.688Z,2.00
2023-01-22T12:59:48.999Z,2.10
2023-01-22T13:01:11.528Z,2.20
2023-01-22T13:02:31.166Z,2.20
2023-01-22T13:03:33.807Z,2.10
2023-01-22T13:04:35.287Z,2.10
2023-01-22T13:05:40.505Z,2.00
2023-01-22T13:06:43.546Z,1.80
2023-01-22T13:07:46.078Z,1.70
2023-01-22T13:08:48.088Z,1.80
2023-01-22T13:10:21.616Z,1.80
2023-01-22T13:11:33.738Z,1.80
2023-01-22T13:12:49.392Z,1.80
2023-01-22T13:14:13.676Z,1.70
2023-01-22T13:15:25.983Z,1.70
2023-01-22T13:16:36.714Z,1.70
2023-01-22T13:17:40.893Z,1.70
2023-01-22T13:18:46.022Z,1.80
2023-01-22T13:19:50.457Z,1.80
2023-01-22T13:21:08.387Z,1.80
2023-01-22T13:22:16.237Z,1.80
2023-01-22T13:23:20.239Z,1.80
2023-01-22T13:24:22.842Z,1.90
2023-01-22T13:25:31.244Z,1.90
2023-01-22T13:26:35.667Z,1.90
2023-01-22T13:27:37.872Z,1.90
2023-01-22T13:28:40.065Z,1.80
2023-01-22T13:29:42.686Z,1.80
2023-01-22T13:30:54.819Z,1.80
2023-01-22T13:31:58.783Z,1.80
2023-01-22T13:33:14.646Z,1.80
2023-01-22T13:34:16.126Z,1.90
2023-01-22T13:35:19.877Z,1.90
2023-01-22T13:36:21.731Z,2.10
2023-01-22T13:37:27.089Z,2.10
2023-01-22T13:38:31.283Z,2.00
2023-01-22T13:39:34.160Z,2.00
2023-01-22T13:40:50.253Z,2.00
2023-01-22T13:41:55.450Z,2.00
2023-01-22T13:42:59.768Z,2.00
2023-01-22T13:44:02.874Z,1.80
2023-01-22T13:45:04.924Z,1.80
2023-01-22T13:46:07.234Z,1.80
2023-01-22T13:47:30.348Z,1.80
2023-01-22T13:48:32.528Z,1.70
2023-01-22T13:49:41.265Z,1.70
2023-01-22T13:50:47.761Z,1.60
2023-01-22T13:51:50.317Z,1.60
2023-01-22T13:52:52.162Z,1.60
2023-01-22T13:53:55.036Z,1.60
2023-01-22T13:55:05.405Z,1.60
2023-01-22T13:56:10.829Z,1.60
2023-01-22T13:57:16.990Z,1.60
2023-01-22T13:58:48.699Z,1.60
2023-01-22T13:59:58.757Z,1.60
2023-01-22T14:01:00.285Z,1.60
2023-01-22T14:02:20.149Z,1.60
2023-01-22T14:03:25.733Z,1.60
2023-01-22T14:04:37.420Z,1.60
2023-01-22T14:05:39.091Z,1.70
2023-01-22T14:06:47.206Z,1.70
2023-01-22T14:07:49.127Z,1.70
2023-01-22T14:08:53.138Z,1.70
2023-01-22T14:09:56.445Z,1.70
2023-01-22T14:11:00.440Z,1.70
2023-01-22T14:12:14.928Z,1.70
2023-01-22T14:13:16.607Z,1.80
2023-01-22T14:14:21.111Z,1.80
2023-01-22T14:15:22.719Z,1.80
2023-01-22T14:16:24.344Z,1.80
2023-01-22T14:17:28.896Z,1.80
2023-01-22T14:18:30.323Z,1.80
2023-01-22T14:19:32.289Z,1.80